createdAt,value
2018-05-21T00:00:32.403Z,7.70
2018-05-21T00:02:59.964Z,7.57
2018-05-21T00:05:29.387Z,7.80
2018-05-21T00:07:56.904Z,6.83
2018-05-21T00:10:25.099Z,8.30
2018-05-21T00:12:52.680Z,8.20
2018-05-21T00:15:20.221Z,7.90
2018-05-21T00:17:47.840Z,7.97
2018-05-21T00:20:16.370Z,8.20
2018-05-21T00:22:44.028Z,8.83
2018-05-21T00:25:12.332Z,8.37
2018-05-21T00:27:39.867Z,8.97
2018-05-21T00:30:07.440Z,8.20
2018-05-21T00:32:36.999Z,8.30
2018-05-21T00:35:04.547Z,8.63
2018-05-21T00:37:33.059Z,7.87
2018-05-21T00:40:02.423Z,8.97
2018-05-21T00:42:29.962Z,8.77
2018-05-21T00:44:59.635Z,8.13
2018-05-21T00:47:27.241Z,9.20
2018-05-21T00:49:54.767Z,8.10
2018-05-21T00:52:22.341Z,8.17
2018-05-21T00:55:04.062Z,8.47
2018-05-21T00:57:31.721Z,8.47
2018-05-21T00:59:59.290Z,8.80
2018-05-21T01:02:26.858Z,8.97
2018-05-21T01:04:54.522Z,8.47
2018-05-21T01:07:22.249Z,8.07
2018-05-21T01:09:49.809Z,8.60
2018-05-21T01:12:17.331Z,8.90
2018-05-21T01:14:44.864Z,7.97
2018-05-21T01:17:12.521Z,8.00
2018-05-21T01:19:40.063Z,8.90
2018-05-21T01:22:07.658Z,9.03
2018-05-21T01:24:35.196Z,8.80
2018-05-21T01:27:06.937Z,9.70
2018-05-21T01:29:34.486Z,8.70
2018-05-21T01:32:04.085Z,9.40
2018-05-21T01:34:32.023Z,9.10
2018-05-21T01:36:59.682Z,8.07
2018-05-21T01:39:27.234Z,9.30
2018-05-21T01:41:54.828Z,8.40
2018-05-21T01:44:23.253Z,9.50
2018-05-21T01:46:50.876Z,9.40
2018-05-21T01:49:19.344Z,9.50
2018-05-21T01:51:47.673Z,8.80
2018-05-21T01:54:15.281Z,9.30
2018-05-21T01:56:43.607Z,9.20
2018-05-21T01:59:11.188Z,9.40
2018-05-21T02:01:38.765Z,8.90
2018-05-21T02:04:06.307Z,8.23
2018-05-21T02:06:33.880Z,9.10
2018-05-21T02:09:01.469Z,9.50
2018-05-21T02:11:30.782Z,9.17
2018-05-21T02:13:58.316Z,9.70
2018-05-21T02:16:25.892Z,9.97
2018-05-21T02:18:54.191Z,9.67
2018-05-21T02:21:22.048Z,8.77
2018-05-21T02:23:49.741Z,9.90
2018-05-21T02:26:17.286Z,9.73
2018-05-21T02:28:44.865Z,9.97
2018-05-21T02:31:12.403Z,8.70
2018-05-21T02:33:39.997Z,9.47
2018-05-21T02:36:07.532Z,10.30
2018-05-21T02:38:35.196Z,11.20
2018-05-21T02:41:02.814Z,10.70
2018-05-21T02:43:31.133Z,10.23
2018-05-21T02:45:58.804Z,11.20
2018-05-21T02:48:26.336Z,10.30
2018-05-21T02:50:54.853Z,9.60
2018-05-21T02:53:22.545Z,10.83
2018-05-21T02:55:50.124Z,9.53
2018-05-21T02:58:18.645Z,10.67
2018-05-21T03:00:47.184Z,10.80
2018-05-21T03:03:14.738Z,9.80
2018-05-21T03:05:42.339Z,10.60
2018-05-21T03:08:09.890Z,10.60
2018-05-21T03:10:37.439Z,9.60
2018-05-21T03:13:05.746Z,10.87
2018-05-21T03:15:33.343Z,10.13
2018-05-21T03:18:02.824Z,11.23
2018-05-21T03:20:30.411Z,10.90
2018-05-21T03:22:57.972Z,12.03
2018-05-21T03:25:26.581Z,11.87
2018-05-21T03:27:54.128Z,10.63
2018-05-21T03:30:22.609Z,11.00
2018-05-21T03:32:50.250Z,11.53
2018-05-21T03:35:17.895Z,11.70
2018-05-21T03:37:45.473Z,10.50
2018-05-21T03:40:13.009Z,12.43
2018-05-21T03:42:40.718Z,11.57
2018-05-21T03:45:09.165Z,11.40
2018-05-21T03:47:36.739Z,11.93
2018-05-21T03:50:04.285Z,11.80
2018-05-21T03:52:31.854Z,11.40
2018-05-21T03:54:59.397Z,12.93
2018-05-21T03:57:26.920Z,11.17
2018-05-21T04:00:07.895Z,11.10
2018-05-21T04:02:48.956Z,11.70
2018-05-21T04:05:18.695Z,12.10
2018-05-21T04:07:46.336Z,12.00
2018-05-21T04:10:14.683Z,12.23
2018-05-21T04:12:42.263Z,12.20
2018-05-21T04:15:10.823Z,12.03
2018-05-21T04:17:38.382Z,11.33
2018-05-21T04:20:05.977Z,12.63
2018-05-21T04:22:34.285Z,10.47
2018-05-21T04:25:04.021Z,11.00
2018-05-21T04:27:31.656Z,11.63
2018-05-21T04:30:00.126Z,11.27
2018-05-21T04:32:28.455Z,11.13
2018-05-21T04:34:56.985Z,11.37
2018-05-21T04:37:26.302Z,10.47
2018-05-21T04:39:53.859Z,10.60
2018-05-21T04:42:21.494Z,11.50
2018-05-21T04:44:50.816Z,11.63
2018-05-21T04:47:19.281Z,11.17
2018-05-21T04:49:47.720Z,10.50
2018-05-21T04:52:15.297Z,12.33
2018-05-21T04:54:42.834Z,10.30
2018-05-21T04:57:10.448Z,11.40
2018-05-21T04:59:38.761Z,10.93
2018-05-21T05:02:06.348Z,10.87
2018-05-21T05:04:33.972Z,11.10
2018-05-21T05:07:01.569Z,10.80
2018-05-21T05:09:30.060Z,10.60
2018-05-21T05:11:57.690Z,11.30
2018-05-21T05:14:25.212Z,11.00
2018-05-21T05:16:53.600Z,10.30
2018-05-21T05:19:21.153Z,9.40
2018-05-21T05:21:49.525Z,10.30
2018-05-21T05:24:17.862Z,10.03
2018-05-21T05:26:45.422Z,10.53
2018-05-21T05:29:13.115Z,9.47
2018-05-21T05:31:41.431Z,10.40
2018-05-21T05:34:08.994Z,9.80
2018-05-21T05:36:36.533Z,10.37
2018-05-21T05:39:05.657Z,9.93
2018-05-21T05:41:33.243Z,9.67
2018-05-21T05:44:01.607Z,9.50
2018-05-21T05:46:29.156Z,10.07
2018-05-21T05:48:56.936Z,9.90
2018-05-21T05:51:25.227Z,9.30
2018-05-21T05:53:55.159Z,8.93
2018-05-21T05:56:22.739Z,9.30
2018-05-21T05:58:51.032Z,9.53
2018-05-21T06:01:19.635Z,8.33
2018-05-21T06:03:47.342Z,8.40
2018-05-21T06:06:14.927Z,8.90
2018-05-21T06:08:43.354Z,9.80
2018-05-21T06:11:10.917Z,8.70
2018-05-21T06:13:38.581Z,9.47
2018-05-21T06:16:06.405Z,8.30
2018-05-21T06:18:34.769Z,8.73
2018-05-21T06:21:03.087Z,8.90
2018-05-21T06:23:30.640Z,8.17
2018-05-21T06:25:58.242Z,8.67
2018-05-21T06:28:25.809Z,9.20
2018-05-21T06:30:53.439Z,7.80
2018-05-21T06:33:21.027Z,8.10
2018-05-21T06:35:48.603Z,8.27
2018-05-21T06:38:16.304Z,8.00
2018-05-21T06:40:43.947Z,7.30
2018-05-21T06:43:11.703Z,7.53
2018-05-21T06:45:40.007Z,7.50
2018-05-21T06:48:07.560Z,7.47
2018-05-21T06:50:35.905Z,7.70
2018-05-21T06:53:04.880Z,6.90
2018-05-21T06:55:32.407Z,7.63
2018-05-21T06:57:59.999Z,7.77
2018-05-21T07:00:27.530Z,7.40
2018-05-21T07:02:55.070Z,7.40
2018-05-21T07:05:22.644Z,7.80
2018-05-21T07:07:50.950Z,8.00
2018-05-21T07:10:18.537Z,8.00
2018-05-21T07:12:46.078Z,7.93
2018-05-21T07:15:13.659Z,7.97
2018-05-21T07:17:41.244Z,8.60
2018-05-21T07:20:08.851Z,8.30
2018-05-21T07:22:36.388Z,8.40
2018-05-21T07:25:04.707Z,8.50
2018-05-21T07:27:32.257Z,7.70
2018-05-21T07:30:00.137Z,8.40
2018-05-21T07:32:28.593Z,6.90
2018-05-21T07:34:56.136Z,7.10
2018-05-21T07:37:26.606Z,8.53
2018-05-21T07:39:54.130Z,7.20
2018-05-21T07:42:21.744Z,8.23
2018-05-21T07:44:49.429Z,8.30
2018-05-21T07:47:16.908Z,8.60
2018-05-21T07:49:44.447Z,8.23
2018-05-21T07:52:12.013Z,8.57
2018-05-21T07:54:39.777Z,7.30
2018-05-21T07:57:07.399Z,7.33
2018-05-21T07:59:34.927Z,7.67
2018-05-21T08:02:02.968Z,7.07
2018-05-21T08:04:31.405Z,6.90
2018-05-21T08:06:58.927Z,6.60
2018-05-21T08:09:26.513Z,6.70
2018-05-21T08:11:54.107Z,6.10
2018-05-21T08:14:21.732Z,6.33
2018-05-21T08:16:49.337Z,6.00
2018-05-21T08:19:16.905Z,5.80
2018-05-21T08:21:45.233Z,5.53
2018-05-21T08:24:12.857Z,5.27
2018-05-21T08:26:40.559Z,5.13
2018-05-21T08:29:08.094Z,5.70
2018-05-21T08:31:35.701Z,5.40
2018-05-21T08:34:03.217Z,4.97
2018-05-21T08:36:30.856Z,5.37
2018-05-21T08:38:59.352Z,5.77
2018-05-21T08:41:26.936Z,5.83
2018-05-21T08:43:54.591Z,5.50
2018-05-21T08:46:22.220Z,5.43
2018-05-21T08:48:50.656Z,6.50
2018-05-21T08:51:18.216Z,6.73
2018-05-21T08:53:46.623Z,6.00
2018-05-21T08:56:14.176Z,6.47
2018-05-21T08:58:41.760Z,6.20
2018-05-21T09:01:09.705Z,6.73
2018-05-21T09:03:37.391Z,6.70
2018-05-21T09:06:05.884Z,7.63
2018-05-21T09:08:33.439Z,7.23
2018-05-21T09:11:01.403Z,7.27
2018-05-21T09:13:29.747Z,6.47
2018-05-21T09:15:57.294Z,6.13
2018-05-21T09:18:24.919Z,6.07
2018-05-21T09:20:52.515Z,6.20
2018-05-21T09:23:20.130Z,5.67
2018-05-21T09:25:48.456Z,6.27
2018-05-21T09:28:16.001Z,6.53
2018-05-21T09:30:43.683Z,5.53
2018-05-21T09:33:11.244Z,5.20
2018-05-21T09:35:38.864Z,4.97
2018-05-21T09:38:06.418Z,4.70
2018-05-21T09:40:34.735Z,5.00
2018-05-21T09:43:02.348Z,4.93
2018-05-21T09:45:29.924Z,5.27
2018-05-21T09:47:57.464Z,5.47
2018-05-21T09:50:25.772Z,5.63
2018-05-21T09:52:53.376Z,5.77
2018-05-21T09:55:21.019Z,4.57
2018-05-21T09:57:49.188Z,5.13
2018-05-21T10:00:16.830Z,5.03
2018-05-21T10:02:44.385Z,5.10
2018-05-21T10:05:12.016Z,4.63
2018-05-21T10:07:39.604Z,4.40
2018-05-21T10:10:07.251Z,5.20
2018-05-21T10:12:35.574Z,5.00
2018-05-21T10:15:04.390Z,5.23
2018-05-21T10:17:31.968Z,4.60
2018-05-21T10:20:00.360Z,4.93
2018-05-21T10:22:27.987Z,5.57
2018-05-21T10:24:55.625Z,5.30
2018-05-21T10:27:23.201Z,5.13
2018-05-21T10:29:50.784Z,4.53
2018-05-21T10:32:18.564Z,4.03
2018-05-21T10:34:46.877Z,4.83
2018-05-21T10:37:14.483Z,4.20
2018-05-21T10:39:42.044Z,4.27
2018-05-21T10:42:09.619Z,4.77
2018-05-21T10:44:37.203Z,5.77
2018-05-21T10:47:05.114Z,4.73
2018-05-21T10:49:32.799Z,4.67
2018-05-21T10:52:00.567Z,4.47
2018-05-21T10:54:28.083Z,83.30
2018-05-21T10:56:55.662Z,66.50
2018-05-21T10:59:23.432Z,63.57
2018-05-21T11:01:50.995Z,70.40
2018-05-21T11:04:18.650Z,58.70
2018-05-21T11:06:46.223Z,51.70
2018-05-21T11:09:14.841Z,35.80
2018-05-21T11:11:43.222Z,22.10
2018-05-21T11:14:10.935Z,102.93
2018-05-21T11:16:39.372Z,148.17
2018-05-21T11:19:06.992Z,138.53
2018-05-21T11:21:35.528Z,65.07
2018-05-21T11:24:04.555Z,82.03
2018-05-21T11:26:33.224Z,65.03
2018-05-21T11:29:03.257Z,34.90
2018-05-21T11:31:30.777Z,51.70
2018-05-21T11:33:59.111Z,70.03
2018-05-21T11:36:26.643Z,63.67
2018-05-21T11:38:54.960Z,58.73
2018-05-21T11:41:22.527Z,66.70
2018-05-21T11:43:50.113Z,57.70
2018-05-21T11:46:18.465Z,57.53
2018-05-21T11:48:46.819Z,58.87
2018-05-21T11:51:14.484Z,54.97
2018-05-21T11:53:43.273Z,54.33
2018-05-21T11:56:11.041Z,54.53
2018-05-21T11:58:38.876Z,52.60
2018-05-21T12:01:08.840Z,54.50
2018-05-21T12:03:38.082Z,50.20
2018-05-21T12:06:07.767Z,47.87
2018-05-21T12:08:37.132Z,44.30
2018-05-21T12:11:05.214Z,44.87
2018-05-21T12:13:32.821Z,45.00
2018-05-21T12:16:00.326Z,43.17
2018-05-21T12:18:28.023Z,37.80
2018-05-21T12:20:56.378Z,40.77
2018-05-21T12:23:23.960Z,37.87
2018-05-21T12:25:51.884Z,36.30
2018-05-21T12:28:19.484Z,37.30
2018-05-21T12:30:47.107Z,40.30
2018-05-21T12:33:14.688Z,39.60
2018-05-21T12:35:42.577Z,36.77
2018-05-21T12:38:10.958Z,36.77
2018-05-21T12:40:39.318Z,35.30
2018-05-21T12:43:06.914Z,34.20
2018-05-21T12:45:34.605Z,36.33
2018-05-21T12:48:02.305Z,36.10
2018-05-21T12:50:29.860Z,34.43
2018-05-21T12:52:57.387Z,34.60
2018-05-21T12:55:24.958Z,33.53
2018-05-21T12:57:52.631Z,32.90
2018-05-21T13:00:20.404Z,33.37
2018-05-21T13:02:47.927Z,32.47
2018-05-21T13:05:15.711Z,31.33
2018-05-21T13:07:43.251Z,31.20
2018-05-21T13:10:10.989Z,32.70
2018-05-21T13:12:38.516Z,31.53
2018-05-21T13:15:06.131Z,30.60
2018-05-21T13:17:33.697Z,30.83
2018-05-21T13:20:01.369Z,29.73
2018-05-21T13:22:28.905Z,29.97
2018-05-21T13:24:56.478Z,29.70
2018-05-21T13:27:24.109Z,28.93
2018-05-21T13:29:51.727Z,29.90
2018-05-21T13:32:19.279Z,29.10
2018-05-21T13:34:47.204Z,30.33
2018-05-21T13:37:15.502Z,28.17
2018-05-21T13:39:43.983Z,28.87
2018-05-21T13:42:11.644Z,27.70
2018-05-21T13:44:39.166Z,26.90
2018-05-21T13:47:06.802Z,22.27
2018-05-21T13:49:34.335Z,17.83
2018-05-21T13:52:01.963Z,17.43
2018-05-21T13:54:30.331Z,16.97
2018-05-21T13:56:57.902Z,16.20
2018-05-21T13:59:26.212Z,15.40
2018-05-21T14:01:53.771Z,14.97
2018-05-21T14:04:21.381Z,15.03
2018-05-21T14:06:48.963Z,5.37
2018-05-21T14:09:17.379Z,5.07
2018-05-21T14:11:44.958Z,5.40
2018-05-21T14:14:12.580Z,6.07
2018-05-21T14:16:40.299Z,6.23
2018-05-21T14:19:07.914Z,5.80
2018-05-21T14:21:36.397Z,5.80
2018-05-21T14:24:04.853Z,6.87
2018-05-21T14:26:32.507Z,6.40
2018-05-21T14:29:00.093Z,5.77
2018-05-21T14:31:28.113Z,6.00
2018-05-21T14:33:56.707Z,6.07
2018-05-21T14:36:24.254Z,6.07
2018-05-21T14:38:51.924Z,5.33
2018-05-21T14:41:22.294Z,5.37
2018-05-21T14:43:51.636Z,5.70
2018-05-21T14:46:19.232Z,5.63
2018-05-21T14:48:46.834Z,5.47
2018-05-21T14:51:14.464Z,5.03
2018-05-21T14:53:42.241Z,5.47
2018-05-21T14:56:09.782Z,4.87
2018-05-21T14:58:38.349Z,6.10
2018-05-21T15:01:05.993Z,5.53
2018-05-21T15:03:33.570Z,5.87
2018-05-21T15:06:01.184Z,5.57
2018-05-21T15:08:28.751Z,5.30
2018-05-21T15:10:56.949Z,6.20
2018-05-21T15:13:24.609Z,6.53
2018-05-21T15:15:52.280Z,5.47
2018-05-21T15:18:19.860Z,4.73
2018-05-21T15:20:47.511Z,4.60
2018-05-21T15:23:15.081Z,4.90
2018-05-21T15:25:43.659Z,5.50
2018-05-21T15:28:11.276Z,4.37
2018-05-21T15:30:40.026Z,4.20
2018-05-21T15:33:07.615Z,3.30
2018-05-21T15:35:35.197Z,2.50
2018-05-21T15:38:07.900Z,2.90
2018-05-21T15:40:37.700Z,3.23
2018-05-21T15:43:05.384Z,3.17
2018-05-21T15:45:32.909Z,3.43
2018-05-21T15:48:00.497Z,3.50
2018-05-21T15:50:28.061Z,3.97
2018-05-21T15:52:55.664Z,3.50
2018-05-21T15:55:24.022Z,3.87
2018-05-21T15:57:51.723Z,3.60
2018-05-21T16:00:19.296Z,3.40
2018-05-21T16:02:46.957Z,3.73
2018-05-21T16:05:14.644Z,3.53
2018-05-21T16:07:42.251Z,3.37
2018-05-21T16:10:10.700Z,3.10
2018-05-21T16:12:38.249Z,3.57
2018-05-21T16:15:05.883Z,3.30
2018-05-21T16:17:33.547Z,3.27
2018-05-21T16:20:01.198Z,3.50
2018-05-21T16:22:29.565Z,3.70
2018-05-21T16:24:57.886Z,2.67
2018-05-21T16:27:25.506Z,3.33
2018-05-21T16:29:54.032Z,3.70
2018-05-21T16:32:22.568Z,3.57
2018-05-21T16:34:50.913Z,6.77
2018-05-21T16:37:18.780Z,3.23
2018-05-21T16:39:46.334Z,3.00
2018-05-21T16:42:13.902Z,2.93
2018-05-21T16:44:41.552Z,2.40
2018-05-21T16:47:09.208Z,3.07
2018-05-21T16:49:37.543Z,2.57
2018-05-21T16:52:07.143Z,3.07
2018-05-21T16:54:35.477Z,3.07
2018-05-21T16:57:03.068Z,3.20
2018-05-21T16:59:30.700Z,2.93
2018-05-21T17:01:58.461Z,3.10
2018-05-21T17:04:26.036Z,3.27
2018-05-21T17:06:53.757Z,3.00
2018-05-21T17:09:21.288Z,2.93
2018-05-21T17:11:49.704Z,2.60
2018-05-21T17:14:17.294Z,2.50
2018-05-21T17:16:44.833Z,3.43
2018-05-21T17:19:12.520Z,2.70
2018-05-21T17:21:40.084Z,3.10
2018-05-21T17:24:07.620Z,2.40
2018-05-21T17:26:35.255Z,3.47
2018-05-21T17:29:03.915Z,3.00
2018-05-21T17:31:31.556Z,3.17
2018-05-21T17:33:59.141Z,3.77
2018-05-21T17:36:26.789Z,3.37
2018-05-21T17:38:54.319Z,3.70
2018-05-21T17:41:21.887Z,4.17
2018-05-21T17:43:49.471Z,4.40
2018-05-21T17:46:17.321Z,4.30
2018-05-21T17:48:44.867Z,3.97
2018-05-21T17:51:12.530Z,4.70
2018-05-21T17:53:40.454Z,4.47
2018-05-21T17:56:08.065Z,4.07
2018-05-21T17:58:35.700Z,4.00
2018-05-21T18:01:04.305Z,4.63
2018-05-21T18:03:31.967Z,4.20
2018-05-21T18:05:59.610Z,4.47
2018-05-21T18:08:27.180Z,4.47
2018-05-21T18:10:55.867Z,4.60
2018-05-21T18:13:23.476Z,4.70
2018-05-21T18:15:51.824Z,3.90
2018-05-21T18:18:19.659Z,3.77
2018-05-21T18:20:47.441Z,4.07
2018-05-21T18:23:15.039Z,3.40
2018-05-21T18:25:43.680Z,3.00
2018-05-21T18:28:11.441Z,3.53
2018-05-21T18:30:39.192Z,4.10
2018-05-21T18:33:06.795Z,3.80
2018-05-21T18:35:34.520Z,4.20
2018-05-21T18:38:02.097Z,3.60
2018-05-21T18:40:29.675Z,3.53
2018-05-21T18:42:57.240Z,3.63
2018-05-21T18:45:24.864Z,3.90
2018-05-21T18:47:52.399Z,3.43
2018-05-21T18:50:20.002Z,4.20
2018-05-21T18:52:47.627Z,3.40
2018-05-21T18:55:16.371Z,3.93
2018-05-21T18:57:43.918Z,4.63
2018-05-21T19:00:11.519Z,3.90
2018-05-21T19:02:40.024Z,4.30
2018-05-21T19:05:07.621Z,4.57
2018-05-21T19:07:35.144Z,4.10
2018-05-21T19:10:03.916Z,4.13
2018-05-21T19:12:31.505Z,4.40
2018-05-21T19:15:00.110Z,4.37
2018-05-21T19:17:27.712Z,3.97
2018-05-21T19:19:56.244Z,4.57
2018-05-21T19:22:23.820Z,4.03
2018-05-21T19:24:52.369Z,4.20
2018-05-21T19:27:20.168Z,4.20
2018-05-21T19:29:47.695Z,4.53
2018-05-21T19:32:15.296Z,4.10
2018-05-21T19:34:42.874Z,4.20
2018-05-21T19:37:10.443Z,4.60
2018-05-21T19:39:38.981Z,4.63
2018-05-21T19:42:06.565Z,4.97
2018-05-21T19:44:34.157Z,5.30
2018-05-21T19:47:02.417Z,5.40
2018-05-21T19:49:30.037Z,5.63
2018-05-21T19:51:57.699Z,4.70
2018-05-21T19:54:25.262Z,5.73
2018-05-21T19:56:54.022Z,5.63
2018-05-21T19:59:22.521Z,5.67
2018-05-21T20:01:50.901Z,5.90
2018-05-21T20:04:18.903Z,6.53
2018-05-21T20:06:46.452Z,6.57
2018-05-21T20:09:14.130Z,6.00
2018-05-21T20:11:41.705Z,6.77
2018-05-21T20:14:10.218Z,6.53
2018-05-21T20:16:38.775Z,6.63
2018-05-21T20:19:06.378Z,7.87
2018-05-21T20:21:33.929Z,7.60
2018-05-21T20:24:01.965Z,8.53
2018-05-21T20:26:29.629Z,9.50
2018-05-21T20:28:57.244Z,8.70
2018-05-21T20:31:24.843Z,8.10
2018-05-21T20:33:52.741Z,8.60
2018-05-21T20:36:21.160Z,8.67
2018-05-21T20:38:49.538Z,9.90
2018-05-21T20:41:17.127Z,9.70
2018-05-21T20:43:44.730Z,8.77
2018-05-21T20:46:13.076Z,9.37
2018-05-21T20:48:40.637Z,9.73
2018-05-21T20:51:08.197Z,9.63
2018-05-21T20:53:36.782Z,8.87
2018-05-21T20:56:05.485Z,9.60
2018-05-21T20:58:33.127Z,9.13
2018-05-21T21:01:00.696Z,9.87
2018-05-21T21:03:29.190Z,8.93
2018-05-21T21:05:56.763Z,9.80
2018-05-21T21:08:25.091Z,9.70
2018-05-21T21:10:52.687Z,9.73
2018-05-21T21:13:20.276Z,9.30
2018-05-21T21:15:47.839Z,9.97
2018-05-21T21:18:15.531Z,9.90
2018-05-21T21:20:43.101Z,9.70
2018-05-21T21:23:10.674Z,11.10
2018-05-21T21:25:38.237Z,9.53
2018-05-21T21:28:05.972Z,9.70
2018-05-21T21:30:33.637Z,9.40
2018-05-21T21:33:03.073Z,9.87
2018-05-21T21:35:30.644Z,10.27
2018-05-21T21:37:59.132Z,9.13
2018-05-21T21:40:27.516Z,10.10
2018-05-21T21:42:55.829Z,10.40
2018-05-21T21:45:23.385Z,11.00
2018-05-21T21:47:50.960Z,10.27
2018-05-21T21:50:18.492Z,9.80
2018-05-21T21:52:46.051Z,9.77
2018-05-21T21:55:14.374Z,9.63
2018-05-21T21:57:42.040Z,10.27
2018-05-21T22:00:09.631Z,9.57
2018-05-21T22:02:38.256Z,10.57
2018-05-21T22:05:10.143Z,10.30
2018-05-21T22:07:37.757Z,9.37
2018-05-21T22:10:07.143Z,10.13
2018-05-21T22:12:35.616Z,9.07
2018-05-21T22:15:04.211Z,11.17
2018-05-21T22:17:31.790Z,11.83
2018-05-21T22:19:59.393Z,10.70
2018-05-21T22:22:26.945Z,9.60
2018-05-21T22:24:54.505Z,10.00
2018-05-21T22:27:22.097Z,9.80
2018-05-21T22:29:50.677Z,9.70
2018-05-21T22:32:19.143Z,9.00
2018-05-21T22:34:46.732Z,10.00
2018-05-21T22:37:14.315Z,9.67
2018-05-21T22:39:42.616Z,9.53
2018-05-21T22:42:10.175Z,10.37
2018-05-21T22:44:41.740Z,9.53
2018-05-21T22:47:09.370Z,10.40
2018-05-21T22:49:37.707Z,9.73
2018-05-21T22:52:07.761Z,9.90
2018-05-21T22:54:36.108Z,10.97
2018-05-21T22:57:03.748Z,10.00
2018-05-21T22:59:31.319Z,11.53
2018-05-21T23:01:59.033Z,9.87
2018-05-21T23:04:27.397Z,10.50
2018-05-21T23:06:55.018Z,10.70
2018-05-21T23:09:22.565Z,10.63
2018-05-21T23:11:50.221Z,10.87
2018-05-21T23:17:12.312Z,10.53
2018-05-21T23:19:39.955Z,11.00
2018-05-21T23:22:07.527Z,11.13
2018-05-21T23:24:36.124Z,9.87
2018-05-21T23:27:05.253Z,10.13
2018-05-21T23:29:32.972Z,9.50
2018-05-21T23:32:03.858Z,10.37
2018-05-21T23:34:32.169Z,11.37
2018-05-21T23:37:04.817Z,10.57
2018-05-21T23:39:33.386Z,10.20
2018-05-21T23:42:09.354Z,10.00
2018-05-21T23:44:38.626Z,11.50
2018-05-21T23:47:06.218Z,10.20
2018-05-21T23:49:34.630Z,9.03
2018-05-21T23:52:02.271Z,9.40
2018-05-21T23:54:30.178Z,9.67
2018-05-21T23:56:57.720Z,8.77
2018-05-21T23:59:26.165Z,9.50
